sensor_id;sensor_type;location;lat;lon;timestamp;P1;durP1;ratioP1;P2;durP2;ratioP2
27505;SDS011;14939;43.596;1.320;2023-01-10T00:00:11;24.67;;;4.38;;
27505;SDS011;14939;43.596;1.320;2023-01-10T00:02:37;23.70;;;3.78;;
27505;SDS011;14939;43.596;1.320;2023-01-10T00:05:03;32.88;;;4.78;;
27505;SDS011;14939;43.596;1.320;2023-01-10T00:07:29;24.50;;;4.15;;
27505;SDS011;14939;43.596;1.320;2023-01-10T00:09:55;38.80;;;5.10;;
27505;SDS011;14939;43.596;1.320;2023-01-10T00:12:21;27.13;;;4.55;;
27505;SDS011;14939;43.596;1.320;2023-01-10T00:15:05;28.55;;;4.88;;
27505;SDS011;14939;43.596;1.320;2023-01-10T00:17:31;31.02;;;5.00;;
27505;SDS011;14939;43.596;1.320;2023-01-10T00:19:57;30.08;;;4.43;;
27505;SDS011;14939;43.596;1.320;2023-01-10T00:22:23;25.08;;;4.20;;
27505;SDS011;14939;43.596;1.320;2023-01-10T00:24:50;29.00;;;3.97;;
27505;SDS011;14939;43.596;1.320;2023-01-10T00:27:16;23.35;;;3.90;;
27505;SDS011;14939;43.596;1.320;2023-01-10T00:29:46;31.98;;;4.30;;
27505;SDS011;14939;43.596;1.320;2023-01-10T00:32:15;29.60;;;4.72;;
27505;SDS011;14939;43.596;1.320;2023-01-10T00:34:41;26.55;;;4.68;;
27505;SDS011;14939;43.596;1.320;2023-01-10T00:37:06;31.83;;;4.25;;
27505;SDS011;14939;43.596;1.320;2023-01-10T00:39:32;29.25;;;4.20;;
27505;SDS011;14939;43.596;1.320;2023-01-10T00:41:58;29.25;;;4.55;;
27505;SDS011;14939;43.596;1.320;2023-01-10T00:44:42;25.98;;;4.13;;
27505;SDS011;14939;43.596;1.320;2023-01-10T00:47:10;25.55;;;3.95;;
27505;SDS011;14939;43.596;1.320;2023-01-10T00:49:37;30.40;;;5.35;;
27505;SDS011;14939;43.596;1.320;2023-01-10T00:52:03;29.35;;;5.05;;
27505;SDS011;14939;43.596;1.320;2023-01-10T00:54:29;28.15;;;5.60;;
27505;SDS011;14939;43.596;1.320;2023-01-10T00:56:55;27.73;;;4.68;;
27505;SDS011;14939;43.596;1.320;2023-01-10T00:59:21;32.70;;;4.47;;
27505;SDS011;14939;43.596;1.320;2023-01-10T01:01:48;26.02;;;4.15;;
27505;SDS011;14939;43.596;1.320;2023-01-10T01:04:17;25.30;;;5.00;;
27505;SDS011;14939;43.596;1.320;2023-01-10T01:06:43;26.48;;;4.10;;
27505;SDS011;14939;43.596;1.320;2023-01-10T01:09:11;25.00;;;4.25;;
27505;SDS011;14939;43.596;1.320;2023-01-10T01:11:37;24.48;;;4.70;;
27505;SDS011;14939;43.596;1.320;2023-01-10T01:14:03;31.90;;;4.45;;
27505;SDS011;14939;43.596;1.320;2023-01-10T01:16:29;24.92;;;4.20;;
27505;SDS011;14939;43.596;1.320;2023-01-10T01:18:55;27.17;;;4.03;;
27505;SDS011;14939;43.596;1.320;2023-01-10T01:21:21;34.67;;;4.63;;
27505;SDS011;14939;43.596;1.320;2023-01-10T01:23:52;28.77;;;3.85;;
27505;SDS011;14939;43.596;1.320;2023-01-10T01:26:21;37.03;;;4.50;;
27505;SDS011;14939;43.596;1.320;2023-01-10T01:28:48;29.50;;;4.60;;
27505;SDS011;14939;43.596;1.320;2023-01-10T01:31:14;24.33;;;4.57;;
27505;SDS011;14939;43.596;1.320;2023-01-10T01:33:39;27.52;;;5.10;;
27505;SDS011;14939;43.596;1.320;2023-01-10T01:36:09;33.25;;;5.05;;
27505;SDS011;14939;43.596;1.320;2023-01-10T01:38:36;29.85;;;5.00;;
27505;SDS011;14939;43.596;1.320;2023-01-10T01:41:03;29.75;;;5.30;;
27505;SDS011;14939;43.596;1.320;2023-01-10T01:44:03;27.33;;;4.13;;
27505;SDS011;14939;43.596;1.320;2023-01-10T01:46:31;19.48;;;3.70;;
27505;SDS011;14939;43.596;1.320;2023-01-10T01:49:00;25.95;;;4.50;;
27505;SDS011;14939;43.596;1.320;2023-01-10T01:51:30;31.48;;;4.30;;
27505;SDS011;14939;43.596;1.320;2023-01-10T01:54:02;33.78;;;4.53;;
27505;SDS011;14939;43.596;1.320;2023-01-10T01:56:39;26.25;;;4.68;;
27505;SDS011;14939;43.596;1.320;2023-01-10T01:59:17;27.92;;;5.53;;
27505;SDS011;14939;43.596;1.320;2023-01-10T02:01:59;34.13;;;5.07;;
27505;SDS011;14939;43.596;1.320;2023-01-10T02:04:39;33.58;;;5.40;;
27505;SDS011;14939;43.596;1.320;2023-01-10T02:07:11;37.55;;;5.10;;
27505;SDS011;14939;43.596;1.320;2023-01-10T02:12:40;26.83;;;5.57;;
27505;SDS011;14939;43.596;1.320;2023-01-10T02:15:08;35.05;;;6.38;;
27505;SDS011;14939;43.596;1.320;2023-01-10T02:17:35;35.00;;;6.93;;
27505;SDS011;14939;43.596;1.320;2023-01-10T02:20:03;29.52;;;5.90;;
27505;SDS011;14939;43.596;1.320;2023-01-10T02:22:49;39.67;;;8.70;;
27505;SDS011;14939;43.596;1.320;2023-01-10T02:34:35;30.52;;;5.80;;
27505;SDS011;14939;43.596;1.320;2023-01-10T02:37:07;35.28;;;7.53;;
27505;SDS011;14939;43.596;1.320;2023-01-10T02:45:13;28.08;;;5.55;;
27505;SDS011;14939;43.596;1.320;2023-01-10T02:48:01;35.30;;;4.88;;
27505;SDS011;14939;43.596;1.320;2023-01-10T02:50:35;26.70;;;5.55;;
27505;SDS011;14939;43.596;1.320;2023-01-10T02:53:10;29.70;;;5.13;;
27505;SDS011;14939;43.596;1.320;2023-01-10T02:59:05;38.72;;;4.75;;
27505;SDS011;14939;43.596;1.320;2023-01-10T03:06:38;22.95;;;4.60;;
27505;SDS011;14939;43.596;1.320;2023-01-10T03:09:22;29.25;;;4.60;;
27505;SDS011;14939;43.596;1.320;2023-01-10T03:12:00;29.50;;;3.92;;
27505;SDS011;14939;43.596;1.320;2023-01-10T03:14:35;28.55;;;4.03;;
27505;SDS011;14939;43.596;1.320;2023-01-10T03:17:03;30.15;;;3.92;;
27505;SDS011;14939;43.596;1.320;2023-01-10T03:19:36;29.98;;;4.72;;
27505;SDS011;14939;43.596;1.320;2023-01-10T03:22:06;29.25;;;3.90;;
27505;SDS011;14939;43.596;1.320;2023-01-10T03:24:35;23.42;;;3.65;;
27505;SDS011;14939;43.596;1.320;2023-01-10T03:32:28;32.65;;;4.30;;
27505;SDS011;14939;43.596;1.320;2023-01-10T03:34:56;22.67;;;4.25;;
27505;SDS011;14939;43.596;1.320;2023-01-10T03:37:35;26.83;;;3.70;;
27505;SDS011;14939;43.596;1.320;2023-01-10T03:42:55;29.13;;;3.95;;
27505;SDS011;14939;43.596;1.320;2023-01-10T03:45:47;31.35;;;3.67;;
27505;SDS011;14939;43.596;1.320;2023-01-10T03:48:29;23.52;;;3.97;;
27505;SDS011;14939;43.596;1.320;2023-01-10T03:51:00;24.90;;;4.22;;
27505;SDS011;14939;43.596;1.320;2023-01-10T03:53:29;24.25;;;3.53;;
27505;SDS011;14939;43.596;1.320;2023-01-10T03:55:59;20.63;;;3.45;;
27505;SDS011;14939;43.596;1.320;2023-01-10T03:58:25;23.75;;;4.68;;
27505;SDS011;14939;43.596;1.320;2023-01-10T04:00:53;30.58;;;4.43;;
27505;SDS011;14939;43.596;1.320;2023-01-10T04:03:18;25.33;;;3.53;;
27505;SDS011;14939;43.596;1.320;2023-01-10T04:05:44;28.10;;;3.30;;
27505;SDS011;14939;43.596;1.320;2023-01-10T04:08:10;25.42;;;3.70;;
27505;SDS011;14939;43.596;1.320;2023-01-10T04:10:36;22.25;;;3.70;;
27505;SDS011;14939;43.596;1.320;2023-01-10T04:13:02;20.33;;;3.72;;
27505;SDS011;14939;43.596;1.320;2023-01-10T04:15:29;25.67;;;3.70;;
27505;SDS011;14939;43.596;1.320;2023-01-10T04:17:55;26.73;;;3.83;;
27505;SDS011;14939;43.596;1.320;2023-01-10T04:20:21;26.85;;;3.28;;
27505;SDS011;14939;43.596;1.320;2023-01-10T04:22:50;25.25;;;3.63;;
27505;SDS011;14939;43.596;1.320;2023-01-10T04:25:16;29.50;;;4.43;;
27505;SDS011;14939;43.596;1.320;2023-01-10T04:27:42;30.08;;;4.07;;
27505;SDS011;14939;43.596;1.320;2023-01-10T04:30:08;23.20;;;3.20;;
27505;SDS011;14939;43.596;1.320;2023-01-10T04:32:34;33.75;;;3.80;;
27505;SDS011;14939;43.596;1.320;2023-01-10T04:35:00;24.98;;;3.53;;
27505;SDS011;14939;43.596;1.320;2023-01-10T04:37:25;21.02;;;3.45;;
27505;SDS011;14939;43.596;1.320;2023-01-10T04:39:51;30.83;;;3.58;;
27505;SDS011;14939;43.596;1.320;2023-01-10T04:42:17;30.35;;;3.88;;
27505;SDS011;14939;43.596;1.320;2023-01-10T04:44:43;26.83;;;3.72;;
27505;SDS011;14939;43.596;1.320;2023-01-10T04:47:08;23.13;;;3.75;;
27505;SDS011;14939;43.596;1.320;2023-01-10T04:49:34;22.13;;;3.92;;
27505;SDS011;14939;43.596;1.320;2023-01-10T04:52:00;18.90;;;3.60;;
27505;SDS011;14939;43.596;1.320;2023-01-10T04:54:26;16.70;;;3.65;;
27505;SDS011;14939;43.596;1.320;2023-01-10T04:56:51;22.65;;;3.65;;
27505;SDS011;14939;43.596;1.320;2023-01-10T04:59:17;20.77;;;4.03;;
27505;SDS011;14939;43.596;1.320;2023-01-10T05:01:44;26.13;;;3.60;;
27505;SDS011;14939;43.596;1.320;2023-01-10T05:04:09;25.98;;;3.75;;
27505;SDS011;14939;43.596;1.320;2023-01-10T05:06:35;22.10;;;3.47;;
27505;SDS011;14939;43.596;1.320;2023-01-10T05:09:04;24.60;;;3.42;;
27505;SDS011;14939;43.596;1.320;2023-01-10T05:11:30;20.50;;;3.88;;
27505;SDS011;14939;43.596;1.320;2023-01-10T05:13:56;20.90;;;3.97;;
27505;SDS011;14939;43.596;1.320;2023-01-10T05:16:21;25.10;;;4.13;;
27505;SDS011;14939;43.596;1.320;2023-01-10T05:18:49;30.08;;;3.90;;
27505;SDS011;14939;43.596;1.320;2023-01-10T05:21:15;23.42;;;3.95;;
27505;SDS011;14939;43.596;1.320;2023-01-10T05:23:41;24.55;;;4.03;;
27505;SDS011;14939;43.596;1.320;2023-01-10T05:26:08;22.88;;;4.05;;
27505;SDS011;14939;43.596;1.320;2023-01-10T05:28:40;24.65;;;3.55;;
27505;SDS011;14939;43.596;1.320;2023-01-10T05:31:07;24.95;;;4.03;;
27505;SDS011;14939;43.596;1.320;2023-01-10T05:33:35;25.35;;;4.03;;
27505;SDS011;14939;43.596;1.320;2023-01-10T05:36:02;24.23;;;4.75;;
27505;SDS011;14939;43.596;1.320;2023-01-10T05:38:28;27.90;;;4.78;;
27505;SDS011;14939;43.596;1.320;2023-01-10T05:40:55;16.73;;;3.53;;
27505;SDS011;14939;43.596;1.320;2023-01-10T05:43:22;26.60;;;3.90;;
27505;SDS011;14939;43.596;1.320;2023-01-10T05:45:48;23.10;;;4.05;;
27505;SDS011;14939;43.596;1.320;2023-01-10T05:48:15;25.98;;;3.63;;
27505;SDS011;14939;43.596;1.320;2023-01-10T05:50:40;21.65;;;3.40;;
27505;SDS011;14939;43.596;1.320;2023-01-10T05:53:06;26.52;;;3.75;;
27505;SDS011;14939;43.596;1.320;2023-01-10T05:55:32;23.35;;;3.67;;
27505;SDS011;14939;43.596;1.320;2023-01-10T05:57:58;19.60;;;3.58;;
27505;SDS011;14939;43.596;1.320;2023-01-10T06:00:24;20.02;;;3.55;;
27505;SDS011;14939;43.596;1.320;2023-01-10T06:02:50;21.08;;;3.80;;
27505;SDS011;14939;43.596;1.320;2023-01-10T06:05:18;27.75;;;3.63;;
27505;SDS011;14939;43.596;1.320;2023-01-10T06:07:44;17.33;;;4.30;;
27505;SDS011;14939;43.596;1.320;2023-01-10T06:10:10;22.85;;;4.00;;
27505;SDS011;14939;43.596;1.320;2023-01-10T06:12:38;17.13;;;3.22;;
27505;SDS011;14939;43.596;1.320;2023-01-10T06:15:05;22.45;;;3.50;;
27505;SDS011;14939;43.596;1.320;2023-01-10T06:17:31;18.38;;;3.75;;
27505;SDS011;14939;43.596;1.320;2023-01-10T06:19:57;17.17;;;3.88;;
27505;SDS011;14939;43.596;1.320;2023-01-10T06:22:22;20.48;;;3.63;;
27505;SDS011;14939;43.596;1.320;2023-01-10T06:24:48;19.13;;;4.30;;
27505;SDS011;14939;43.596;1.320;2023-01-10T06:27:14;20.88;;;3.85;;
27505;SDS011;14939;43.596;1.320;2023-01-10T06:29:40;20.05;;;4.22;;
27505;SDS011;14939;43.596;1.320;2023-01-10T06:32:05;15.18;;;3.55;;
27505;SDS011;14939;43.596;1.320;2023-01-10T06:34:31;17.90;;;3.78;;
27505;SDS011;14939;43.596;1.320;2023-01-10T06:36:57;19.33;;;5.10;;
27505;SDS011;14939;43.596;1.320;2023-01-10T06:39:22;17.90;;;3.85;;
27505;SDS011;14939;43.596;1.320;2023-01-10T06:41:48;20.63;;;4.03;;
27505;SDS011;14939;43.596;1.320;2023-01-10T06:44:14;22.08;;;4.00;;
27505;SDS011;14939;43.596;1.320;2023-01-10T06:46:39;17.90;;;3.92;;
27505;SDS011;14939;43.596;1.320;2023-01-10T06:49:05;15.52;;;4.10;;
27505;SDS011;14939;43.596;1.320;2023-01-10T06:51:31;15.48;;;4.40;;
27505;SDS011;14939;43.596;1.320;2023-01-10T06:53:57;18.45;;;3.80;;
27505;SDS011;14939;43.596;1.320;2023-01-10T06:56:22;17.90;;;3.90;;
27505;SDS011;14939;43.596;1.320;2023-01-10T06:58:48;23.50;;;4.38;;
27505;SDS011;14939;43.596;1.320;2023-01-10T07:01:15;23.50;;;4.53;;
27505;SDS011;14939;43.596;1.320;2023-01-10T07:03:43;27.17;;;4.35;;
27505;SDS011;14939;43.596;1.320;2023-01-10T07:06:09;17.52;;;3.80;;
27505;SDS011;14939;43.596;1.320;2023-01-10T07:08:35;20.42;;;3.30;;
27505;SDS011;14939;43.596;1.320;2023-01-10T07:11:02;17.10;;;3.67;;
27505;SDS011;14939;43.596;1.320;2023-01-10T07:13:28;18.63;;;3.63;;
27505;SDS011;14939;43.596;1.320;2023-01-10T07:16:03;20.75;;;3.70;;
27505;SDS011;14939;43.596;1.320;2023-01-10T07:18:30;22.88;;;3.85;;
27505;SDS011;14939;43.596;1.320;2023-01-10T07:20:57;19.80;;;4.82;;
27505;SDS011;14939;43.596;1.320;2023-01-10T07:23:23;29.40;;;4.45;;
27505;SDS011;14939;43.596;1.320;2023-01-10T07:25:49;18.02;;;3.78;;
27505;SDS011;14939;43.596;1.320;2023-01-10T07:28:14;26.05;;;4.90;;
27505;SDS011;14939;43.596;1.320;2023-01-10T07:30:40;17.58;;;4.47;;
27505;SDS011;14939;43.596;1.320;2023-01-10T07:33:06;26.40;;;5.20;;
27505;SDS011;14939;43.596;1.320;2023-01-10T07:35:32;23.13;;;4.95;;
27505;SDS011;14939;43.596;1.320;2023-01-10T07:37:58;20.00;;;4.65;;
27505;SDS011;14939;43.596;1.320;2023-01-10T07:40:24;14.60;;;4.57;;
27505;SDS011;14939;43.596;1.320;2023-01-10T07:42:55;16.35;;;4.35;;
27505;SDS011;14939;43.596;1.320;2023-01-10T07:45:25;21.75;;;5.20;;
27505;SDS011;14939;43.596;1.320;2023-01-10T07:48:01;19.08;;;5.00;;
27505;SDS011;14939;43.596;1.320;2023-01-10T07:50:29;24.20;;;5.70;;
27505;SDS011;14939;43.596;1.320;2023-01-10T07:52:58;26.45;;;5.72;;
27505;SDS011;14939;43.596;1.320;2023-01-10T07:55:24;32.45;;;6.65;;
27505;SDS011;14939;43.596;1.320;2023-01-10T07:57:51;18.50;;;6.05;;
27505;SDS011;14939;43.596;1.320;2023-01-10T08:00:17;26.17;;;6.45;;
27505;SDS011;14939;43.596;1.320;2023-01-10T08:02:43;18.77;;;6.10;;
27505;SDS011;14939;43.596;1.320;2023-01-10T08:05:10;17.15;;;7.15;;
27505;SDS011;14939;43.596;1.320;2023-01-10T08:07:36;20.88;;;6.72;;
27505;SDS011;14939;43.596;1.320;2023-01-10T08:10:02;16.00;;;6.13;;
27505;SDS011;14939;43.596;1.320;2023-01-10T08:12:30;15.73;;;5.82;;
27505;SDS011;14939;43.596;1.320;2023-01-10T08:14:56;15.63;;;5.85;;
27505;SDS011;14939;43.596;1.320;2023-01-10T08:17:22;23.42;;;5.93;;
27505;SDS011;14939;43.596;1.320;2023-01-10T08:19:48;21.30;;;5.97;;
27505;SDS011;14939;43.596;1.320;2023-01-10T08:22:14;18.85;;;6.20;;
27505;SDS011;14939;43.596;1.320;2023-01-10T08:24:39;23.67;;;5.97;;
27505;SDS011;14939;43.596;1.320;2023-01-10T08:27:05;20.23;;;6.53;;
27505;SDS011;14939;43.596;1.320;2023-01-10T08:29:31;16.20;;;5.55;;
27505;SDS011;14939;43.596;1.320;2023-01-10T08:31:57;14.38;;;5.78;;
27505;SDS011;14939;43.596;1.320;2023-01-10T08:34:23;20.02;;;6.03;;
27505;SDS011;14939;43.596;1.320;2023-01-10T08:36:52;16.80;;;6.32;;
27505;SDS011;14939;43.596;1.320;2023-01-10T08:39:20;20.27;;;6.72;;
27505;SDS011;14939;43.596;1.320;2023-01-10T08:41:50;23.38;;;6.75;;
27505;SDS011;14939;43.596;1.320;2023-01-10T08:44:17;19.63;;;7.03;;
27505;SDS011;14939;43.596;1.320;2023-01-10T08:46:42;19.10;;;6.10;;
27505;SDS011;14939;43.596;1.320;2023-01-10T08:49:08;17.50;;;5.88;;
27505;SDS011;14939;43.596;1.320;2023-01-10T08:51:34;19.77;;;6.07;;
27505;SDS011;14939;43.596;1.320;2023-01-10T08:54:00;24.08;;;7.10;;
27505;SDS011;14939;43.596;1.320;2023-01-10T08:56:26;16.60;;;6.40;;
27505;SDS011;14939;43.596;1.320;2023-01-10T08:58:52;17.17;;;5.35;;
27505;SDS011;14939;43.596;1.320;2023-01-10T09:01:17;18.60;;;5.25;;
27505;SDS011;14939;43.596;1.320;2023-01-10T09:03:43;14.13;;;5.20;;
27505;SDS011;14939;43.596;1.320;2023-01-10T09:06:09;21.10;;;6.68;;
27505;SDS011;14939;43.596;1.320;2023-01-10T09:08:35;20.40;;;6.50;;
27505;SDS011;14939;43.596;1.320;2023-01-10T09:11:02;35.38;;;7.95;;
27505;SDS011;14939;43.596;1.320;2023-01-10T09:13:28;19.38;;;7.90;;
27505;SDS011;14939;43.596;1.320;2023-01-10T09:15:55;24.90;;;7.63;;
27505;SDS011;14939;43.596;1.320;2023-01-10T09:18:21;19.08;;;6.85;;
27505;SDS011;14939;43.596;1.320;2023-01-10T09:20:48;23.02;;;5.80;;
27505;SDS011;14939;43.596;1.320;2023-01-10T09:23:16;20.92;;;6.38;;
27505;SDS011;14939;43.596;1.320;2023-01-10T09:25:48;13.40;;;5.60;;
27505;SDS011;14939;43.596;1.320;2023-01-10T09:28:15;18.23;;;6.87;;
27505;SDS011;14939;43.596;1.320;2023-01-10T09:30:42;18.40;;;8.88;;
27505;SDS011;14939;43.596;1.320;2023-01-10T09:33:09;21.10;;;8.30;;
27505;SDS011;14939;43.596;1.320;2023-01-10T09:35:36;18.33;;;7.35;;
27505;SDS011;14939;43.596;1.320;2023-01-10T09:38:02;17.33;;;5.82;;
27505;SDS011;14939;43.596;1.320;2023-01-10T09:43:07;15.73;;;5.40;;
27505;SDS011;14939;43.596;1.320;2023-01-10T09:46:05;18.60;;;5.70;;
27505;SDS011;14939;43.596;1.320;2023-01-10T09:48:42;13.10;;;5.47;;
27505;SDS011;14939;43.596;1.320;2023-01-10T09:51:37;18.33;;;5.85;;
27505;SDS011;14939;43.596;1.320;2023-01-10T09:56:52;20.75;;;7.13;;
27505;SDS011;14939;43.596;1.320;2023-01-10T09:59:20;15.35;;;6.60;;
27505;SDS011;14939;43.596;1.320;2023-01-10T10:01:52;21.10;;;9.10;;
27505;SDS011;14939;43.596;1.320;2023-01-10T10:04:34;16.10;;;5.50;;
27505;SDS011;14939;43.596;1.320;2023-01-10T10:07:01;15.75;;;5.82;;
27505;SDS011;14939;43.596;1.320;2023-01-10T10:09:30;15.07;;;5.03;;
27505;SDS011;14939;43.596;1.320;2023-01-10T10:14:52;16.45;;;6.70;;
27505;SDS011;14939;43.596;1.320;2023-01-10T10:20:46;19.35;;;6.47;;
27505;SDS011;14939;43.596;1.320;2023-01-10T10:26:06;11.70;;;5.75;;
27505;SDS011;14939;43.596;1.320;2023-01-10T10:36:49;15.48;;;5.93;;
27505;SDS011;14939;43.596;1.320;2023-01-10T10:39:35;19.73;;;6.15;;
27505;SDS011;14939;43.596;1.320;2023-01-10T10:42:01;16.15;;;6.82;;
27505;SDS011;14939;43.596;1.320;2023-01-10T10:46:59;11.77;;;4.88;;
27505;SDS011;14939;43.596;1.320;2023-01-10T10:49:32;16.63;;;4.63;;
27505;SDS011;14939;43.596;1.320;2023-01-10T10:52:12;18.90;;;4.60;;
27505;SDS011;14939;43.596;1.320;2023-01-10T10:54:45;12.35;;;4.75;;
27505;SDS011;14939;43.596;1.320;2023-01-10T10:57:11;13.57;;;5.10;;
27505;SDS011;14939;43.596;1.320;2023-01-10T10:59:37;14.43;;;4.85;;
27505;SDS011;14939;43.596;1.320;2023-01-10T11:02:09;15.02;;;4.63;;
27505;SDS011;14939;43.596;1.320;2023-01-10T11:05:00;15.93;;;5.22;;
27505;SDS011;14939;43.596;1.320;2023-01-10T11:09:58;12.15;;;3.45;;
27505;SDS011;14939;43.596;1.320;2023-01-10T11:12:32;10.68;;;3.08;;
27505;SDS011;14939;43.596;1.320;2023-01-10T11:14:59;13.05;;;3.55;;
27505;SDS011;14939;43.596;1.320;2023-01-10T11:17:26;16.30;;;3.83;;
27505;SDS011;14939;43.596;1.320;2023-01-10T11:20:17;20.60;;;4.13;;
27505;SDS011;14939;43.596;1.320;2023-01-10T11:22:46;14.20;;;4.18;;
27505;SDS011;14939;43.596;1.320;2023-01-10T11:25:15;15.45;;;4.18;;
27505;SDS011;14939;43.596;1.320;2023-01-10T11:27:53;13.40;;;3.75;;
27505;SDS011;14939;43.596;1.320;2023-01-10T11:30:22;15.23;;;2.53;;
27505;SDS011;14939;43.596;1.320;2023-01-10T11:32:51;11.38;;;2.05;;
27505;SDS011;14939;43.596;1.320;2023-01-10T11:35:24;14.82;;;2.40;;
27505;SDS011;14939;43.596;1.320;2023-01-10T11:37:57;14.00;;;2.28;;
27505;SDS011;14939;43.596;1.320;2023-01-10T11:40:25;9.95;;;2.42;;
27505;SDS011;14939;43.596;1.320;2023-01-10T11:42:53;14.45;;;3.05;;
27505;SDS011;14939;43.596;1.320;2023-01-10T11:45:22;12.10;;;2.00;;
27505;SDS011;14939;43.596;1.320;2023-01-10T11:50:30;10.70;;;2.15;;
27505;SDS011;14939;43.596;1.320;2023-01-10T11:53:01;16.48;;;2.22;;
27505;SDS011;14939;43.596;1.320;2023-01-10T11:55:29;9.82;;;2.40;;
27505;SDS011;14939;43.596;1.320;2023-01-10T11:57:59;9.70;;;2.00;;
27505;SDS011;14939;43.596;1.320;2023-01-10T12:00:55;10.75;;;1.90;;
27505;SDS011;14939;43.596;1.320;2023-01-10T12:03:26;14.75;;;2.00;;
27505;SDS011;14939;43.596;1.320;2023-01-10T12:08:37;14.55;;;2.00;;
27505;SDS011;14939;43.596;1.320;2023-01-10T12:11:18;11.00;;;2.17;;
27505;SDS011;14939;43.596;1.320;2023-01-10T12:13:55;15.82;;;1.88;;
27505;SDS011;14939;43.596;1.320;2023-01-10T12:16:29;11.52;;;2.05;;
27505;SDS011;14939;43.596;1.320;2023-01-10T12:18:57;10.57;;;1.60;;
27505;SDS011;14939;43.596;1.320;2023-01-10T12:21:29;12.25;;;1.83;;
27505;SDS011;14939;43.596;1.320;2023-01-10T12:23:57;10.35;;;1.85;;
27505;SDS011;14939;43.596;1.320;2023-01-10T12:26:28;11.43;;;2.07;;
27505;SDS011;14939;43.596;1.320;2023-01-10T12:28:56;9.55;;;1.83;;
27505;SDS011;14939;43.596;1.320;2023-01-10T12:31:29;16.20;;;2.20;;
27505;SDS011;14939;43.596;1.320;2023-01-10T12:34:00;7.88;;;2.22;;
27505;SDS011;14939;43.596;1.320;2023-01-10T12:37:15;11.65;;;2.30;;
27505;SDS011;14939;43.596;1.320;2023-01-10T12:39:32;9.13;;;1.95;;
27505;SDS011;14939;43.596;1.320;2023-01-10T12:45:12;10.00;;;1.75;;
27505;SDS011;14939;43.596;1.320;2023-01-10T12:47:48;14.65;;;2.10;;
27505;SDS011;14939;43.596;1.320;2023-01-10T12:50:28;8.27;;;1.50;;
27505;SDS011;14939;43.596;1.320;2023-01-10T12:53:10;8.95;;;2.25;;
27505;SDS011;14939;43.596;1.320;2023-01-10T12:55:40;12.48;;;1.73;;
27505;SDS011;14939;43.596;1.320;2023-01-10T12:58:51;11.02;;;1.80;;
27505;SDS011;14939;43.596;1.320;2023-01-10T13:01:03;12.35;;;2.55;;
27505;SDS011;14939;43.596;1.320;2023-01-10T13:03:31;9.05;;;1.98;;
27505;SDS011;14939;43.596;1.320;2023-01-10T13:05:59;11.20;;;1.80;;
27505;SDS011;14939;43.596;1.320;2023-01-10T13:08:27;9.35;;;1.70;;
27505;SDS011;14939;43.596;1.320;2023-01-10T13:11:00;10.95;;;1.80;;
27505;SDS011;14939;43.596;1.320;2023-01-10T13:13:29;5.75;;;2.10;;
27505;SDS011;14939;43.596;1.320;2023-01-10T13:18:56;7.18;;;1.90;;
27505;SDS011;14939;43.596;1.320;2023-01-10T13:21:35;11.90;;;1.85;;
27505;SDS011;14939;43.596;1.320;2023-01-10T13:24:06;11.13;;;2.20;;
27505;SDS011;14939;43.596;1.320;2023-01-10T13:29:24;14.00;;;1.85;;
27505;SDS011;14939;43.596;1.320;2023-01-10T13:31:51;13.43;;;2.03;;
27505;SDS011;14939;43.596;1.320;2023-01-10T13:34:22;10.50;;;2.15;;
27505;SDS011;14939;43.596;1.320;2023-01-10T13:36:59;11.60;;;1.98;;
27505;SDS011;14939;43.596;1.320;2023-01-10T13:39:35;10.05;;;1.88;;
27505;SDS011;14939;43.596;1.320;2023-01-10T13:53:44;11.18;;;2.03;;
27505;SDS011;14939;43.596;1.320;2023-01-10T14:00:49;10.50;;;2.70;;
27505;SDS011;14939;43.596;1.320;2023-01-10T14:03:38;8.80;;;2.10;;
27505;SDS011;14939;43.596;1.320;2023-01-10T14:06:29;8.48;;;1.83;;
27505;SDS011;14939;43.596;1.320;2023-01-10T14:09:49;10.68;;;1.75;;
27505;SDS011;14939;43.596;1.320;2023-01-10T14:11:54;12.68;;;2.13;;
27505;SDS011;14939;43.596;1.320;2023-01-10T14:16:51;9.57;;;1.90;;
27505;SDS011;14939;43.596;1.320;2023-01-10T14:19:28;10.75;;;1.90;;
27505;SDS011;14939;43.596;1.320;2023-01-10T14:21:57;11.32;;;2.10;;
27505;SDS011;14939;43.596;1.320;2023-01-10T14:24:36;20.48;;;2.28;;
27505;SDS011;14939;43.596;1.320;2023-01-10T14:27:06;11.13;;;1.90;;
27505;SDS011;14939;43.596;1.320;2023-01-10T14:29:38;9.00;;;2.10;;
27505;SDS011;14939;43.596;1.320;2023-01-10T14:32:34;9.63;;;1.92;;
27505;SDS011;14939;43.596;1.320;2023-01-10T14:35:08;13.40;;;1.95;;
27505;SDS011;14939;43.596;1.320;2023-01-10T14:37:42;12.07;;;1.92;;
27505;SDS011;14939;43.596;1.320;2023-01-10T14:42:45;10.15;;;2.40;;
27505;SDS011;14939;43.596;1.320;2023-01-10T14:47:59;14.93;;;2.00;;
27505;SDS011;14939;43.596;1.320;2023-01-10T14:50:41;9.77;;;2.15;;
27505;SDS011;14939;43.596;1.320;2023-01-10T14:53:15;10.15;;;2.10;;
27505;SDS011;14939;43.596;1.320;2023-01-10T14:55:53;13.40;;;2.00;;
27505;SDS011;14939;43.596;1.320;2023-01-10T14:58:18;12.63;;;2.30;;
27505;SDS011;14939;43.596;1.320;2023-01-10T15:00:46;9.13;;;1.75;;
27505;SDS011;14939;43.596;1.320;2023-01-10T15:03:18;8.15;;;2.00;;
27505;SDS011;14939;43.596;1.320;2023-01-10T15:05:47;8.53;;;1.77;;
27505;SDS011;14939;43.596;1.320;2023-01-10T15:08:18;9.55;;;1.80;;
27505;SDS011;14939;43.596;1.320;2023-01-10T15:10:47;5.38;;;1.40;;
27505;SDS011;14939;43.596;1.320;2023-01-10T15:13:16;12.93;;;2.13;;
27505;SDS011;14939;43.596;1.320;2023-01-10T15:15:44;19.60;;;2.13;;
27505;SDS011;14939;43.596;1.320;2023-01-10T15:18:36;6.93;;;2.00;;
27505;SDS011;14939;43.596;1.320;2023-01-10T15:21:20;11.50;;;1.83;;
27505;SDS011;14939;43.596;1.320;2023-01-10T15:23:48;10.40;;;2.15;;
27505;SDS011;14939;43.596;1.320;2023-01-10T15:26:25;8.38;;;1.67;;
27505;SDS011;14939;43.596;1.320;2023-01-10T15:29:01;8.35;;;1.77;;
27505;SDS011;14939;43.596;1.320;2023-01-10T15:31:35;10.07;;;2.05;;
27505;SDS011;14939;43.596;1.320;2023-01-10T15:34:05;11.68;;;2.03;;
27505;SDS011;14939;43.596;1.320;2023-01-10T15:36:35;10.98;;;1.90;;
27505;SDS011;14939;43.596;1.320;2023-01-10T15:39:17;9.15;;;1.73;;
27505;SDS011;14939;43.596;1.320;2023-01-10T15:41:48;7.43;;;1.75;;
27505;SDS011;14939;43.596;1.320;2023-01-10T15:44:38;7.90;;;2.10;;
27505;SDS011;14939;43.596;1.320;2023-01-10T15:47:30;10.07;;;2.03;;
27505;SDS011;14939;43.596;1.320;2023-01-10T15:49:58;9.57;;;2.13;;
27505;SDS011;14939;43.596;1.320;2023-01-10T15:52:24;9.00;;;1.77;;
27505;SDS011;14939;43.596;1.320;2023-01-10T15:54:50;10.95;;;1.83;;
27505;SDS011;14939;43.596;1.320;2023-01-10T15:57:19;14.32;;;2.20;;
27505;SDS011;14939;43.596;1.320;2023-01-10T15:59:53;7.07;;;1.90;;
27505;SDS011;14939;43.596;1.320;2023-01-10T16:04:55;15.43;;;2.97;;
27505;SDS011;14939;43.596;1.320;2023-01-10T16:07:32;8.52;;;2.65;;
27505;SDS011;14939;43.596;1.320;2023-01-10T16:10:04;13.75;;;3.40;;
27505;SDS011;14939;43.596;1.320;2023-01-10T16:12:33;11.65;;;3.50;;
27505;SDS011;14939;43.596;1.320;2023-01-10T16:15:27;8.68;;;3.03;;
27505;SDS011;14939;43.596;1.320;2023-01-10T16:17:54;18.13;;;4.07;;
27505;SDS011;14939;43.596;1.320;2023-01-10T16:20:21;20.77;;;4.55;;
27505;SDS011;14939;43.596;1.320;2023-01-10T16:22:51;12.48;;;4.22;;
27505;SDS011;14939;43.596;1.320;2023-01-10T16:25:18;11.52;;;4.10;;
27505;SDS011;14939;43.596;1.320;2023-01-10T16:27:48;14.93;;;4.55;;
27505;SDS011;14939;43.596;1.320;2023-01-10T16:30:25;11.70;;;4.30;;
27505;SDS011;14939;43.596;1.320;2023-01-10T16:32:52;13.20;;;4.40;;
27505;SDS011;14939;43.596;1.320;2023-01-10T16:35:19;13.00;;;4.30;;